createdAt,value
2022-10-16T00:01:27.148Z,95476.16
2022-10-16T00:03:54.033Z,95473.44
2022-10-16T00:06:22.302Z,95475.72
2022-10-16T00:08:49.896Z,95480.38
2022-10-16T00:11:20.753Z,95473.66
2022-10-16T00:13:49.071Z,95470.94
2022-10-16T00:16:16.172Z,95464.22
2022-10-16T00:18:43.383Z,95464.56
2022-10-16T00:21:16.803Z,95471.16
2022-10-16T00:23:43.812Z,95476.16
2022-10-16T00:26:13.164Z,95484.34
2022-10-16T00:28:40.429Z,95481.97
2022-10-16T00:31:09.597Z,95474.13
2022-10-16T00:33:37.666Z,95485.72
2022-10-16T00:36:05.188Z,95493.44
2022-10-16T00:38:32.269Z,95493.78
2022-10-16T00:40:58.816Z,95479.31
2022-10-16T00:43:41.143Z,95481.94
2022-10-16T00:46:28.650Z,95488.06
2022-10-16T00:49:05.527Z,95482.16
2022-10-16T00:51:36.583Z,95483.28
2022-10-16T00:54:10.576Z,95479.28
2022-10-16T00:56:37.033Z,95473.81
2022-10-16T00:59:12.711Z,95485.44
2022-10-16T01:01:39.193Z,95479.16
2022-10-16T01:04:05.689Z,95487.69
2022-10-16T01:06:52.595Z,95483.72
2022-10-16T01:09:33.661Z,95482.44
2022-10-16T01:12:38.804Z,95485.84
2022-10-16T01:15:28.998Z,95478.78
2022-10-16T01:18:21.171Z,95482.66
2022-10-16T01:20:55.598Z,95490.38
2022-10-16T01:23:25.185Z,95486.84
2022-10-16T01:26:27.167Z,95488.31
2022-10-16T01:29:30.719Z,95495.56
2022-10-16T01:32:14.880Z,95488.97
2022-10-16T01:35:14.039Z,95500.22
2022-10-16T01:37:56.421Z,95504.84
2022-10-16T01:40:26.462Z,95506.47
2022-10-16T01:43:07.309Z,95503.28
2022-10-16T01:45:35.551Z,95501.34
2022-10-16T01:48:03.331Z,95497.88
2022-10-16T01:50:30.044Z,95504.41
2022-10-16T01:52:59.579Z,95500.56
2022-10-16T01:55:32.737Z,95502.47
2022-10-16T01:58:02.236Z,95498.94
2022-10-16T02:00:30.416Z,95510.66
2022-10-16T02:02:58.882Z,95505.63
2022-10-16T02:05:38.730Z,95512.47
2022-10-16T02:08:05.915Z,95509.41
2022-10-16T02:10:33.456Z,95505.06
2022-10-16T02:13:07.115Z,95502.69
2022-10-16T02:15:33.658Z,95503.47
2022-10-16T02:18:00.323Z,95504.28
2022-10-16T02:20:33.483Z,95496.44
2022-10-16T02:23:04.502Z,95501.88
2022-10-16T02:25:35.725Z,95497.88
2022-10-16T02:28:12.126Z,95499.03
2022-10-16T02:30:44.704Z,95496.66
2022-10-16T02:33:13.864Z,95495.81
2022-10-16T02:35:41.666Z,95500.50
2022-10-16T02:40:57.263Z,95503.09
2022-10-16T02:43:23.769Z,95504.22
2022-10-16T02:45:50.297Z,95496.38
2022-10-16T02:48:16.757Z,95498.63
2022-10-16T02:50:43.319Z,95500.88
2022-10-16T02:53:09.805Z,95503.16
2022-10-16T02:55:36.334Z,95498.81
2022-10-16T02:58:02.855Z,95501.09
2022-10-16T03:00:29.471Z,95505.75
2022-10-16T03:02:56.050Z,95502.56
2022-10-16T03:08:09.087Z,95509.03
2022-10-16T03:10:35.612Z,95502.75
2022-10-16T03:13:02.156Z,95505.81
2022-10-16T03:15:28.744Z,95511.91
2022-10-16T03:17:56.058Z,95506.00
2022-10-16T03:20:22.535Z,95501.22
2022-10-16T03:22:49.121Z,95500.75
2022-10-16T03:25:15.624Z,95503.03
2022-10-16T03:27:42.139Z,95491.66
2022-10-16T03:30:09.517Z,95493.56
2022-10-16T03:35:23.956Z,95505.94
2022-10-16T03:37:50.729Z,95515.28
2022-10-16T03:40:18.106Z,95512.03
2022-10-16T03:42:45.090Z,95513.66
2022-10-16T03:45:12.276Z,95521.81
2022-10-16T03:47:38.935Z,95517.81
2022-10-16T03:50:06.176Z,95520.53
2022-10-16T03:52:32.713Z,95517.03
2022-10-16T03:54:59.276Z,95512.03
2022-10-16T03:57:26.181Z,95512.03
2022-10-16T03:59:52.874Z,95522.28
2022-10-16T04:02:19.314Z,95525.50
2022-10-16T04:04:45.930Z,95530.28
2022-10-16T04:07:12.425Z,95541.31
2022-10-16T04:09:38.959Z,95533.28
2022-10-16T04:12:05.476Z,95535.00
2022-10-16T04:14:31.985Z,95526.97
2022-10-16T04:16:58.571Z,95528.69
2022-10-16T04:19:25.132Z,95521.44
2022-10-16T04:21:51.742Z,95516.13
2022-10-16T04:24:18.189Z,95518.19
2022-10-16T04:26:44.648Z,95526.16
2022-10-16T04:29:11.154Z,95517.31
2022-10-16T04:31:37.617Z,95517.91
2022-10-16T04:34:04.090Z,95518.03
2022-10-16T04:36:30.623Z,95520.56
2022-10-16T04:38:57.357Z,95521.53
2022-10-16T04:41:23.921Z,95523.25
2022-10-16T04:43:50.574Z,95533.94
2022-10-16T04:46:17.227Z,95534.56
2022-10-16T04:48:43.827Z,95535.47
2022-10-16T04:51:10.357Z,95526.28
2022-10-16T04:53:36.884Z,95521.75
2022-10-16T04:56:03.637Z,95510.94
2022-10-16T04:58:30.297Z,95519.25
2022-10-16T05:00:56.837Z,95509.59
2022-10-16T05:03:23.466Z,95513.56
2022-10-16T05:05:50.182Z,95513.22
2022-10-16T05:08:17.580Z,95509.81
2022-10-16T05:10:44.985Z,95508.69
2022-10-16T05:13:11.915Z,95511.09
2022-10-16T05:15:38.450Z,95513.16
2022-10-16T05:18:05.123Z,95519.06
2022-10-16T05:20:31.723Z,95512.94
2022-10-16T05:22:58.422Z,95522.72
2022-10-16T05:25:25.174Z,95522.06
2022-10-16T05:27:51.716Z,95508.50
2022-10-16T05:30:18.867Z,95511.34
2022-10-16T05:32:49.459Z,95516.13
2022-10-16T05:35:16.272Z,95519.31
2022-10-16T05:37:43.319Z,95521.38
2022-10-16T05:40:10.960Z,95519.56
2022-10-16T05:42:37.535Z,95529.03
2022-10-16T05:45:06.020Z,95530.25
2022-10-16T05:47:32.611Z,95531.53
2022-10-16T05:49:59.155Z,95544.50
2022-10-16T05:52:25.791Z,95534.81
2022-10-16T05:54:52.320Z,95536.09
2022-10-16T05:57:18.854Z,95540.88
2022-10-16T05:59:45.351Z,95549.19
2022-10-16T06:02:14.314Z,95550.44
2022-10-16T06:04:41.163Z,95554.41
2022-10-16T06:07:07.764Z,95560.69
2022-10-16T06:09:34.335Z,95563.09
2022-10-16T06:12:00.803Z,95560.00
2022-10-16T06:14:27.459Z,95574.13
2022-10-16T06:16:54.033Z,95562.41
2022-10-16T06:19:20.547Z,95569.94
2022-10-16T06:21:47.012Z,95574.25
2022-10-16T06:24:13.519Z,95577.09
2022-10-16T06:26:40.047Z,95575.97
2022-10-16T06:29:06.637Z,95576.41
2022-10-16T06:31:33.306Z,95582.38
2022-10-16T06:34:01.029Z,95583.16
2022-10-16T06:36:28.023Z,95583.94
2022-10-16T06:38:54.957Z,95578.94
2022-10-16T06:41:23.268Z,95583.25
2022-10-16T06:43:50.044Z,95573.94
2022-10-16T06:46:19.069Z,95581.44
2022-10-16T06:48:46.090Z,95583.50
2022-10-16T06:51:16.949Z,95591.38
2022-10-16T06:54:02.746Z,95594.19
2022-10-16T06:56:30.258Z,95602.50
2022-10-16T06:58:56.720Z,95613.09
2022-10-16T07:01:25.041Z,95609.69
2022-10-16T07:03:52.518Z,95609.00
2022-10-16T07:06:21.217Z,95609.44
2022-10-16T07:08:48.697Z,95614.25
2022-10-16T07:11:20.089Z,95617.44
2022-10-16T07:13:50.954Z,95624.63
2022-10-16T07:16:23.154Z,95622.78
2022-10-16T07:18:49.666Z,95628.03
2022-10-16T07:21:18.989Z,95634.06
2022-10-16T07:23:45.640Z,95627.56
2022-10-16T07:26:12.574Z,95634.75
2022-10-16T07:28:39.637Z,95643.97
2022-10-16T07:31:08.664Z,95636.66
2022-10-16T07:33:36.186Z,95644.28
2022-10-16T07:36:02.871Z,95646.78
2022-10-16T07:38:29.342Z,95643.47
2022-10-16T07:41:07.569Z,95653.06
2022-10-16T07:43:34.500Z,95643.13
2022-10-16T07:46:04.012Z,95649.56
2022-10-16T07:48:35.003Z,95650.59
2022-10-16T07:51:06.854Z,95649.97
2022-10-16T07:53:34.460Z,95656.47
2022-10-16T07:56:03.753Z,95659.06
2022-10-16T07:58:30.467Z,95658.03
2022-10-16T08:00:57.874Z,95669.16
2022-10-16T08:03:25.525Z,95671.28
2022-10-16T08:05:52.810Z,95667.16
2022-10-16T08:08:20.130Z,95676.38
2022-10-16T08:10:46.860Z,95676.56
2022-10-16T08:13:13.356Z,95674.47
2022-10-16T08:15:39.912Z,95670.78
2022-10-16T08:18:06.653Z,95679.66
2022-10-16T08:20:34.412Z,95682.19
2022-10-16T08:23:01.540Z,95681.56
2022-10-16T08:25:29.070Z,95682.56
2022-10-16T08:27:56.138Z,95685.13
2022-10-16T08:30:24.784Z,95688.03
2022-10-16T08:32:51.565Z,95682.72
2022-10-16T08:35:18.170Z,95688.03
2022-10-16T08:37:44.929Z,95687.38
2022-10-16T08:40:21.452Z,95682.06
2022-10-16T08:43:09.819Z,95681.84
2022-10-16T08:45:49.470Z,95684.00
2022-10-16T08:48:24.969Z,95686.56
2022-10-16T08:50:53.105Z,95691.03
2022-10-16T08:53:23.982Z,95688.22
2022-10-16T08:55:54.627Z,95690.91
2022-10-16T08:58:29.002Z,95689.53
2022-10-16T09:01:01.172Z,95692.88
2022-10-16T09:04:13.515Z,95701.72
2022-10-16T09:06:43.012Z,95700.25
2022-10-16T09:09:46.707Z,95704.28
2022-10-16T09:12:22.659Z,95706.84
2022-10-16T09:15:17.739Z,95707.78
2022-10-16T09:17:59.416Z,95710.31
2022-10-16T09:20:43.769Z,95715.59
2022-10-16T09:23:15.942Z,95716.53
2022-10-16T09:25:46.506Z,95712.31
2022-10-16T09:28:13.136Z,95710.47
2022-10-16T09:30:39.816Z,95716.09
2022-10-16T09:33:07.521Z,95724.09
2022-10-16T09:35:39.038Z,95728.97
2022-10-16T09:38:06.406Z,95719.25
2022-10-16T09:40:39.099Z,95720.13
2022-10-16T09:43:21.343Z,95725.75
2022-10-16T09:45:55.573Z,95722.75
2022-10-16T09:48:22.495Z,95729.56
2022-10-16T09:51:00.304Z,95723.72
2022-10-16T09:53:44.224Z,95728.22
2022-10-16T09:56:14.063Z,95723.22
2022-10-16T09:58:50.202Z,95727.25
2022-10-16T10:01:16.726Z,95724.22
2022-10-16T10:03:44.902Z,95726.66
2022-10-16T10:06:30.472Z,95727.56
2022-10-16T10:09:07.833Z,95722.94
2022-10-16T10:11:49.729Z,95719.88
2022-10-16T10:14:23.591Z,95725.50
2022-10-16T10:16:52.384Z,95721.69
2022-10-16T10:19:22.786Z,95732.41
2022-10-16T10:21:51.005Z,95723.09
2022-10-16T10:24:19.747Z,95723.16
2022-10-16T10:27:06.720Z,95720.88
2022-10-16T10:29:48.337Z,95728.44
2022-10-16T10:32:29.038Z,95715.16
2022-10-16T10:35:15.576Z,95714.03
2022-10-16T10:37:45.099Z,95713.31
2022-10-16T10:40:49.003Z,95705.50
2022-10-16T10:43:34.387Z,95719.34
2022-10-16T10:46:05.104Z,95713.56
2022-10-16T10:48:48.201Z,95714.00
2022-10-16T10:51:33.045Z,95716.41
2022-10-16T10:54:20.764Z,95716.50
2022-10-16T10:56:47.197Z,95714.13
2022-10-16T10:59:33.392Z,95713.88
2022-10-16T11:02:02.975Z,95715.13
2022-10-16T11:04:35.169Z,95705.28
2022-10-16T11:07:27.968Z,95709.66
2022-10-16T11:10:10.252Z,95705.72
2022-10-16T11:12:43.421Z,95715.66
2022-10-16T11:15:29.208Z,95705.44
2022-10-16T11:18:04.259Z,95706.28
2022-10-16T11:20:47.600Z,95702.75
2022-10-16T11:23:22.992Z,95710.69
2022-10-16T11:25:50.092Z,95708.38
2022-10-16T11:28:32.742Z,95710.38
2022-10-16T11:31:42.152Z,95707.28
2022-10-16T11:34:14.716Z,95703.75
2022-10-16T11:36:48.256Z,95693.09
2022-10-16T11:39:28.490Z,95693.13
2022-10-16T11:42:03.969Z,95699.50
2022-10-16T11:44:45.464Z,95707.00
2022-10-16T11:50:25.840Z,95697.94
2022-10-16T11:53:06.230Z,95699.13
2022-10-16T11:55:41.917Z,95691.63
2022-10-16T11:58:27.052Z,95699.16
2022-10-16T12:01:11.896Z,95692.44
2022-10-16T12:04:03.870Z,95687.28
2022-10-16T12:06:46.974Z,95690.84
2022-10-16T12:09:21.047Z,95690.09
2022-10-16T12:11:47.632Z,95688.88
2022-10-16T12:14:14.105Z,95685.75
2022-10-16T12:16:57.413Z,95692.88
2022-10-16T12:19:26.353Z,95692.06
2022-10-16T12:21:56.883Z,95695.59
2022-10-16T12:24:30.784Z,95690.06
2022-10-16T12:26:57.728Z,95697.97
2022-10-16T12:29:41.925Z,95695.22
2022-10-16T12:32:46.348Z,95689.66
2022-10-16T12:35:32.858Z,95690.81
2022-10-16T12:38:19.069Z,95692.03
2022-10-16T12:40:55.189Z,95690.81
2022-10-16T12:43:24.934Z,95695.56
2022-10-16T12:46:06.992Z,95685.63
2022-10-16T12:48:48.246Z,95697.53
2022-10-16T12:51:29.407Z,95694.34
2022-10-16T12:54:02.205Z,95693.56
2022-10-16T12:56:52.696Z,95688.78
2022-10-16T12:59:26.065Z,95686.41
2022-10-16T13:02:17.659Z,95688.38
2022-10-16T13:05:11.778Z,95693.53
2022-10-16T13:08:06.871Z,95695.91
2022-10-16T13:10:57.975Z,95685.59
2022-10-16T13:14:00.188Z,95693.53
2022-10-16T13:16:35.653Z,95687.94
2022-10-16T13:19:33.983Z,95696.69
2022-10-16T13:22:30.522Z,95681.63
2022-10-16T13:25:09.015Z,95691.94
2022-10-16T13:27:46.519Z,95689.53
2022-10-16T13:30:26.855Z,95687.16
2022-10-16T13:33:02.121Z,95692.28
2022-10-16T13:35:31.415Z,95693.47
2022-10-16T13:38:37.355Z,95693.47
2022-10-16T13:41:14.291Z,95697.00
2022-10-16T13:43:45.786Z,95699.00
2022-10-16T13:46:23.622Z,95697.41
2022-10-16T13:49:16.376Z,95701.00
2022-10-16T13:51:55.308Z,95696.63
2022-10-16T13:54:22.132Z,95697.81
2022-10-16T13:56:57.781Z,95695.44
2022-10-16T13:59:37.621Z,95704.97
2022-10-16T14:02:20.490Z,95702.97
2022-10-16T14:04:48.333Z,95701.78
2022-10-16T14:07:21.563Z,95701.00
2022-10-16T14:09:51.591Z,95704.56
2022-10-16T14:12:18.222Z,95697.41
2022-10-16T14:14:48.181Z,95701.41
2022-10-16T14:17:16.902Z,95701.81
2022-10-16T14:19:50.430Z,95710.13
2022-10-16T14:22:26.185Z,95706.19
2022-10-16T14:24:52.934Z,95708.59
2022-10-16T14:27:30.038Z,95711.75
2022-10-16T14:30:27.081Z,95716.53
2022-10-16T14:33:02.020Z,95708.19
2022-10-16T14:35:34.944Z,95714.53
2022-10-16T14:38:03.929Z,95712.97
2022-10-16T14:40:36.584Z,95714.16
2022-10-16T14:43:05.128Z,95708.63
2022-10-16T14:45:35.173Z,95715.75
2022-10-16T14:48:06.044Z,95710.19
2022-10-16T14:50:32.755Z,95711.00
2022-10-16T14:52:59.675Z,95719.72
2022-10-16T14:55:26.782Z,95720.88
2022-10-16T14:57:56.928Z,95718.91
2022-10-16T15:00:26.372Z,95714.56
2022-10-16T15:02:52.875Z,95712.59
2022-10-16T15:05:22.225Z,95723.72
2022-10-16T15:07:49.395Z,95718.53
2022-10-16T15:10:20.079Z,95725.28
2022-10-16T15:12:46.881Z,95716.59
2022-10-16T15:15:29.292Z,95723.34
2022-10-16T15:17:57.428Z,95729.25
2022-10-16T15:20:25.380Z,95722.97
2022-10-16T15:22:52.152Z,95721.34
2022-10-16T15:25:32.593Z,95725.31
2022-10-16T15:28:00.648Z,95726.09
2022-10-16T15:30:27.805Z,95726.47
2022-10-16T15:32:54.777Z,95726.88
2022-10-16T15:35:21.549Z,95724.47
2022-10-16T15:37:48.895Z,95732.34
2022-10-16T15:40:17.328Z,95734.72
2022-10-16T15:42:44.440Z,95741.41
2022-10-16T15:45:11.951Z,95737.78
2022-10-16T15:47:41.220Z,95739.72
2022-10-16T15:50:12.447Z,95740.06
2022-10-16T15:52:39.871Z,95743.97
2022-10-16T15:55:11.538Z,95743.53
2022-10-16T15:57:39.184Z,95745.06
2022-10-16T16:00:14.257Z,95746.56
2022-10-16T16:02:42.802Z,95746.13
2022-10-16T16:05:11.161Z,95753.91
2022-10-16T16:07:39.470Z,95757.03
2022-10-16T16:10:08.578Z,95751.81
2022-10-16T16:12:35.315Z,95745.81
2022-10-16T16:15:04.926Z,95755.22
2022-10-16T16:17:33.949Z,95752.34
2022-10-16T16:20:00.632Z,95758.97
2022-10-16T16:22:27.575Z,95761.22
2022-10-16T16:24:54.692Z,95767.78
2022-10-16T16:27:21.218Z,95772.00
2022-10-16T16:29:48.512Z,95773.91
2022-10-16T16:32:15.144Z,95774.16
2022-10-16T16:34:41.638Z,95778.38
2022-10-16T16:37:08.744Z,95772.38
2022-10-16T16:39:35.392Z,95782.88
2022-10-16T16:42:02.011Z,95783.97
2022-10-16T16:44:28.512Z,95780.25
2022-10-16T16:46:55.065Z,95784.03
2022-10-16T16:49:21.677Z,95792.97
2022-10-16T16:51:48.355Z,95789.69
2022-10-16T16:54:14.901Z,95792.34
2022-10-16T16:56:42.392Z,95806.00
2022-10-16T16:59:14.252Z,95799.16
2022-10-16T17:01:41.062Z,95811.66
2022-10-16T17:04:07.915Z,95807.97
2022-10-16T17:06:34.749Z,95816.13
2022-10-16T17:09:06.044Z,95821.47
2022-10-16T17:11:32.807Z,95826.50
2022-10-16T17:14:00.564Z,95830.25
2022-10-16T17:16:33.381Z,95834.47
2022-10-16T17:19:04.931Z,95834.00
2022-10-16T17:21:31.542Z,95834.66
2022-10-16T17:23:58.166Z,95842.41
2022-10-16T17:26:25.465Z,95839.53
2022-10-16T17:28:53.792Z,95840.97
2022-10-16T17:31:28.814Z,95850.69
2022-10-16T17:33:55.635Z,95856.47
2022-10-16T17:36:23.403Z,95850.47
2022-10-16T17:38:50.179Z,95858.94
2022-10-16T17:41:20.063Z,95856.44
2022-10-16T17:43:48.138Z,95865.75
2022-10-16T17:46:15.930Z,95872.47
2022-10-16T17:48:45.116Z,95866.25
2022-10-16T17:51:14.185Z,95866.16
2022-10-16T17:53:41.599Z,95874.25
2022-10-16T17:56:10.699Z,95872.94
2022-10-16T17:58:37.278Z,95878.34
2022-10-16T18:01:13.397Z,95884.84
2022-10-16T18:03:39.936Z,95882.00
2022-10-16T18:06:06.558Z,95887.41
2022-10-16T18:08:33.371Z,95888.03
2022-10-16T18:10:59.859Z,95885.22
2022-10-16T18:13:26.358Z,95886.28
2022-10-16T18:16:00.705Z,95888.56
2022-10-16T18:18:29.593Z,95890.78
2022-10-16T18:20:58.026Z,95894.25
2022-10-16T18:23:24.690Z,95889.81
2022-10-16T18:25:51.401Z,95894.06
2022-10-16T18:28:18.344Z,95893.53
2022-10-16T18:30:44.860Z,95898.91
2022-10-16T18:33:11.490Z,95902.38
2022-10-16T18:35:38.364Z,95902.25
2022-10-16T18:38:04.816Z,95900.22
2022-10-16T18:40:31.324Z,95903.69
2022-10-16T18:42:57.799Z,95907.50
2022-10-16T18:45:24.351Z,95914.13
2022-10-16T18:47:50.839Z,95912.88
2022-10-16T18:50:17.337Z,95915.53
2022-10-16T18:52:49.807Z,95912.34
2022-10-16T18:55:16.806Z,95911.44
2022-10-16T18:57:43.366Z,95918.44
2022-10-16T19:00:10.264Z,95908.94
2022-10-16T19:02:36.792Z,95911.59
2022-10-16T19:05:06.234Z,95911.13
2022-10-16T19:07:33.043Z,95910.25
2022-10-16T19:09:59.585Z,95919.19
2022-10-16T19:12:26.383Z,95921.47
2022-10-16T19:14:53.172Z,95920.56
2022-10-16T19:17:19.720Z,95924.81
2022-10-16T19:19:46.245Z,95930.97
2022-10-16T19:22:12.713Z,95928.16
2022-10-16T19:24:39.358Z,95938.69
2022-10-16T19:27:06.749Z,95934.69
2022-10-16T19:29:33.861Z,95938.47
2022-10-16T19:32:02.719Z,95936.06
2022-10-16T19:34:31.772Z,95943.84
2022-10-16T19:36:58.280Z,95947.28
2022-10-16T19:39:24.736Z,95946.84
2022-10-16T19:41:51.439Z,95950.72
2022-10-16T19:44:18.549Z,95954.16
2022-10-16T19:46:45.301Z,95950.97
2022-10-16T19:49:14.072Z,95957.59
2022-10-16T19:51:40.583Z,95959.88
2022-10-16T19:54:11.543Z,95970.38
2022-10-16T19:56:38.334Z,95969.91
2022-10-16T19:59:06.746Z,95969.44
2022-10-16T20:01:34.470Z,95964.66
2022-10-16T20:04:01.161Z,95968.91
2022-10-16T20:06:27.678Z,95972.78
2022-10-16T20:08:55.072Z,95975.88
2022-10-16T20:11:30.519Z,95976.91
2022-10-16T20:13:59.163Z,95978.38
2022-10-16T20:16:27.149Z,95978.75
2022-10-16T20:18:54.588Z,95975.88
2022-10-16T20:21:24.631Z,95988.34
2022-10-16T20:23:51.268Z,95987.06
2022-10-16T20:26:19.865Z,95993.56
2022-10-16T20:28:46.473Z,95986.81
2022-10-16T20:31:18.865Z,95999.63
2022-10-16T20:33:45.369Z,96004.31
2022-10-16T20:36:16.376Z,95993.56
2022-10-16T20:38:43.240Z,95997.31
2022-10-16T20:41:10.726Z,95999.63
2022-10-16T20:43:41.101Z,96003.38
2022-10-16T20:46:08.627Z,96002.59
2022-10-16T20:48:36.049Z,96004.41
2022-10-16T20:51:16.611Z,96006.22
2022-10-16T20:53:44.440Z,95998.34
2022-10-16T20:56:10.917Z,96004.50
2022-10-16T20:58:37.439Z,96005.19
2022-10-16T21:01:16.417Z,95994.91
2022-10-16T21:03:44.425Z,96006.19
2022-10-16T21:06:11.183Z,95998.66
2022-10-16T21:08:40.091Z,96001.75
2022-10-16T21:11:26.796Z,96008.56
2022-10-16T21:13:55.546Z,96008.56
2022-10-16T21:16:22.407Z,96014.38
2022-10-16T21:18:49.048Z,96016.66
2022-10-16T21:21:24.593Z,96014.16
2022-10-16T21:23:51.644Z,96016.72
2022-10-16T21:26:19.554Z,96016.25
2022-10-16T21:28:46.257Z,96013.41
2022-10-16T21:31:20.234Z,96014.84
2022-10-16T21:33:47.115Z,96008.13
2022-10-16T21:36:25.864Z,96013.00
2022-10-16T21:38:52.891Z,96020.75
2022-10-16T21:41:20.707Z,96015.63
2022-10-16T21:43:47.330Z,96022.09
2022-10-16T21:46:14.703Z,96024.38
2022-10-16T21:48:41.336Z,96023.09
2022-10-16T21:51:07.932Z,96020.25
2022-10-16T21:53:34.573Z,96022.50
2022-10-16T21:56:01.051Z,96018.50
2022-10-16T21:58:27.594Z,96029.00
2022-10-16T22:00:54.095Z,96013.25
2022-10-16T22:03:20.617Z,96017.44
2022-10-16T22:05:47.079Z,96022.78
2022-10-16T22:08:13.585Z,96023.47
2022-10-16T22:10:40.103Z,96024.13
2022-10-16T22:13:06.600Z,96026.41
2022-10-16T22:15:33.081Z,96020.78
2022-10-16T22:17:59.571Z,96017.91
2022-10-16T22:20:26.078Z,96024.50
2022-10-16T22:22:52.545Z,96026.31
2022-10-16T22:25:19.104Z,96021.53
2022-10-16T22:27:45.593Z,96021.53
2022-10-16T22:30:12.078Z,96023.78
2022-10-16T22:32:38.624Z,96022.19
2022-10-16T22:35:05.544Z,96019.78
2022-10-16T22:37:32.083Z,96016.25
2022-10-16T22:40:00.935Z,96018.16
2022-10-16T22:42:27.857Z,96020.09
2022-10-16T22:44:54.431Z,96014.63
2022-10-16T22:47:20.936Z,96013.03
2022-10-16T22:49:47.431Z,96008.72
2022-10-16T22:52:14.064Z,96013.34
2022-10-16T22:54:40.515Z,96011.78
2022-10-16T22:57:07.064Z,96016.41
2022-10-16T22:59:33.679Z,96012.44
2022-10-16T23:02:00.172Z,96007.31
2022-10-16T23:04:26.648Z,96018.91
2022-10-16T23:06:53.180Z,96019.56
2022-10-16T23:09:19.655Z,96018.59
2022-10-16T23:11:46.182Z,96018.47
2022-10-16T23:14:12.811Z,96019.94
2022-10-16T23:16:39.336Z,96021.75
2022-10-16T23:19:05.889Z,96018.84
2022-10-16T23:21:32.638Z,96015.16
2022-10-16T23:23:59.160Z,96017.75
2022-10-16T23:26:27.150Z,96021.13
2022-10-16T23:28:56.720Z,96022.13
2022-10-16T23:31:23.891Z,96021.34
2022-10-16T23:33:50.507Z,96019.59
2022-10-16T23:36:19.761Z,96028.75
2022-10-16T23:38:47.681Z,96022.81
2022-10-16T23:41:15.132Z,96033.59
2022-10-16T23:43:42.087Z,96033.47
2022-10-16T23:46:10.669Z,96032.50
2022-10-16T23:48:37.352Z,96033.97
2022-10-16T23:51:04.911Z,96039.25
2022-10-16T23:53:31.400Z,96033.97
2022-10-16T23:55:58.140Z,96031.91
2022-10-16T23:58:24.717Z,96028.25
